Time;durP1;ratioP1;P1;durP2;ratioP2;P2;SDS_P1;SDS_P2;PMS_P1;PMS_P2;Temp;Humidity;BMP_temperature;BMP_pressure;BME280_temperature;BME280_humidity;BME280_pressure;Samples;Min_cycle;Max_cycle;Signal;HPM_P1;HPM_P2
2020/12/14 00:00:44;;;;;;;5.18;2.20;;;7.60;84.40;;;;;;5073280;28;20024;-74
2020/12/14 00:03:10;;;;;;;4.10;1.45;;;7.60;84.00;;;;;;5072343;28;20035;-74
2020/12/14 00:05:35;;;;;;;7.28;2.08;;;7.60;84.00;;;;;;5072644;28;20480;-78
2020/12/14 00:08:01;;;;;;;4.93;1.70;;;7.60;84.10;;;;;;5073577;28;20059;-78
2020/12/14 00:10:26;;;;;;;7.43;2.40;;;7.60;84.00;;;;;;5073749;28;20365;-78
2020/12/14 00:12:52;;;;;;;7.15;1.70;;;7.70;84.10;;;;;;5055637;28;20384;-75
2020/12/14 00:15:18;;;;;;;8.48;2.20;;;7.70;84.00;;;;;;5063203;28;20040;-75
2020/12/14 00:17:43;;;;;;;6.45;2.00;;;7.70;84.00;;;;;;5072896;28;20107;-75
2020/12/14 00:20:09;;;;;;;8.15;2.10;;;7.70;83.90;;;;;;5072038;28;20032;-75
2020/12/14 00:22:35;;;;;;;6.43;1.95;;;7.70;83.80;;;;;;5071777;28;20024;-75
2020/12/14 00:25:01;;;;;;;5.47;2.00;;;7.70;84.50;;;;;;5073181;28;20107;-78
2020/12/14 00:27:27;;;;;;;5.78;1.70;;;7.70;83.90;;;;;;5072091;28;20035;-78
2020/12/14 00:29:53;;;;;;;6.30;2.00;;;7.70;83.90;;;;;;5072041;28;20032;-78
2020/12/14 00:32:19;;;;;;;9.93;2.10;;;7.70;83.90;;;;;;5072129;28;20028;-78
2020/12/14 00:34:44;;;;;;;4.22;1.80;;;7.70;83.80;;;;;;5072170;28;20029;-78
2020/12/14 00:37:10;;;;;;;7.05;1.98;;;7.70;83.80;;;;;;5073515;28;20473;-78
2020/12/14 00:39:36;;;;;;;6.32;2.40;;;7.80;83.80;;;;;;5072096;28;20031;-78
2020/12/14 00:42:02;;;;;;;5.15;1.60;;;7.80;83.90;;;;;;5072203;28;20087;-78
2020/12/14 00:44:28;;;;;;;7.35;2.10;;;7.70;83.80;;;;;;5073132;28;20405;-78
2020/12/14 00:46:54;;;;;;;6.10;2.22;;;7.80;83.90;;;;;;5055245;28;20029;-78
2020/12/14 00:49:20;;;;;;;6.20;2.05;;;7.80;83.80;;;;;;5083551;28;20048;-78
2020/12/14 00:51:45;;;;;;;5.07;1.90;;;7.80;83.80;;;;;;5075248;28;20024;-78
2020/12/14 00:54:11;;;;;;;4.43;1.80;;;7.80;83.80;;;;;;5093232;28;20119;-78
2020/12/14 00:56:37;;;;;;;5.47;1.85;;;7.80;83.90;;;;;;5093328;28;20052;-78
2020/12/14 00:59:03;;;;;;;5.22;1.73;;;7.80;83.90;;;;;;5060384;28;20032;-78
2020/12/14 01:01:29;;;;;;;4.90;1.80;;;7.80;83.90;;;;;;5097042;28;20081;-74
2020/12/14 01:03:55;;;;;;;7.05;2.15;;;7.80;83.90;;;;;;5061931;28;20419;-74
2020/12/14 01:06:20;;;;;;;5.28;1.75;;;7.80;83.90;;;;;;5062475;28;20035;-74
2020/12/14 01:08:46;;;;;;;6.88;1.77;;;7.80;83.60;;;;;;5071237;28;20040;-74
2020/12/14 01:11:11;;;;;;;8.63;1.60;;;7.90;83.80;;;;;;5078343;28;20058;-74
2020/12/14 01:13:38;;;;;;;6.00;1.80;;;7.90;83.80;;;;;;5078775;28;20463;-74
2020/12/14 01:16:10;;;;;;;5.63;1.90;;;7.90;83.70;;;;;;5062397;28;20060;-74
2020/12/14 01:18:37;;;;;;;6.78;1.90;;;7.90;83.70;;;;;;5061859;28;20039;-73
2020/12/14 01:21:04;;;;;;;4.15;1.77;;;7.90;83.70;;;;;;5077823;28;20032;-74
2020/12/14 01:23:29;;;;;;;5.05;1.77;;;7.90;83.70;;;;;;5078703;28;20107;-74
2020/12/14 01:25:56;;;;;;;7.72;1.58;;;7.90;83.70;;;;;;5077940;28;20101;-74
2020/12/14 01:28:21;;;;;;;6.10;1.80;;;8.00;83.80;;;;;;5062395;28;20036;-78
2020/12/14 01:30:47;;;;;;;4.43;1.60;;;7.90;83.70;;;;;;5078899;28;20030;-78
2020/12/14 01:33:13;;;;;;;5.82;2.00;;;7.90;84.00;;;;;;5079022;28;20028;-78
2020/12/14 01:35:38;;;;;;;5.38;1.70;;;8.00;83.80;;;;;;5078629;28;20031;-78
2020/12/14 01:38:04;;;;;;;6.22;1.73;;;8.00;83.90;;;;;;5096851;28;20032;-78
2020/12/14 01:40:30;;;;;;;5.43;1.75;;;8.00;84.00;;;;;;5096804;28;20028;-78
2020/12/14 01:42:56;;;;;;;3.97;1.42;;;8.00;84.00;;;;;;5096827;28;20034;-78
2020/12/14 01:45:22;;;;;;;3.25;1.75;;;8.00;84.00;;;;;;5078432;28;20032;-79
2020/12/14 01:47:49;;;;;;;5.15;1.65;;;8.00;84.00;;;;;;5078822;28;20089;-78
2020/12/14 01:50:16;;;;;;;5.20;2.17;;;8.00;84.00;;;;;;5078293;28;20135;-78
2020/12/14 01:52:44;;;;;;;5.38;1.63;;;8.10;84.10;;;;;;5096490;28;20487;-78
2020/12/14 01:55:14;;;;;;;2.88;1.40;;;8.10;84.10;;;;;;5076098;28;20024;-78
2020/12/14 01:57:40;;;;;;;6.72;1.67;;;8.10;84.20;;;;;;5096543;28;20107;-78
2020/12/14 02:00:08;;;;;;;4.95;1.85;;;8.10;84.20;;;;;;5096338;28;20109;-78
2020/12/14 02:02:34;;;;;;;3.60;1.33;;;8.20;84.30;;;;;;5096379;28;20114;-78
2020/12/14 02:05:00;;;;;;;4.00;1.45;;;8.20;84.30;;;;;;5078132;28;20551;-78
2020/12/14 02:07:27;;;;;;;6.63;1.52;;;8.20;84.40;;;;;;5096384;28;20028;-78
2020/12/14 02:09:53;;;;;;;6.90;1.60;;;8.20;84.40;;;;;;5096192;28;20020;-78
2020/12/14 02:12:27;;;;;;;4.28;1.13;;;8.20;84.40;;;;;;5096184;28;20522;-78
2020/12/14 02:14:53;;;;;;;6.85;1.85;;;8.20;84.50;;;;;;5075748;28;20025;-78
2020/12/14 02:17:20;;;;;;;4.65;1.45;;;8.30;84.70;;;;;;5068353;28;20115;-78
2020/12/14 02:19:47;;;;;;;3.95;1.30;;;8.30;84.70;;;;;;5096081;28;20434;-78
2020/12/14 02:22:15;;;;;;;6.13;1.45;;;8.30;84.80;;;;;;5077861;28;20055;-78
2020/12/14 02:24:45;;;;;;;4.20;1.10;;;8.30;84.70;;;;;;5096104;28;20034;-78
2020/12/14 02:27:13;;;;;;;4.80;1.50;;;8.30;84.80;;;;;;5077741;28;20024;-78
2020/12/14 02:29:42;;;;;;;4.15;1.42;;;8.30;84.80;;;;;;5061142;28;20036;-78
2020/12/14 02:32:11;;;;;;;3.05;1.20;;;8.30;84.80;;;;;;5095668;28;20012;-78
2020/12/14 02:34:40;;;;;;;2.33;1.55;;;8.30;84.90;;;;;;5095880;28;20496;-78
2020/12/14 02:37:08;;;;;;;3.05;1.10;;;8.40;85.00;;;;;;5095779;28;20055;-78
2020/12/14 02:39:37;;;;;;;4.10;1.58;;;8.40;85.10;;;;;;5077475;28;20077;-79
2020/12/14 02:42:05;;;;;;;1.75;1.10;;;8.40;85.10;;;;;;5077805;28;20028;-78
2020/12/14 02:44:31;;;;;;;3.50;1.10;;;8.40;85.20;;;;;;5095558;28;20086;-79
2020/12/14 02:46:56;;;;;;;4.78;1.30;;;8.40;85.20;;;;;;5060720;28;20040;-78
2020/12/14 02:49:22;;;;;;;3.17;1.15;;;8.40;85.30;;;;;;5076230;28;20048;-74
2020/12/14 02:51:47;;;;;;;3.75;1.17;;;8.40;85.30;;;;;;5059439;28;20123;-74
2020/12/14 02:54:13;;;;;;;4.18;1.38;;;8.40;85.30;;;;;;5076968;28;20032;-74
2020/12/14 02:56:43;;;;;;;2.92;1.00;;;8.50;85.50;;;;;;5059669;28;20028;-74
2020/12/14 02:59:14;;;;;;;5.15;1.23;;;8.50;85.50;;;;;;5094940;28;20387;-74
2020/12/14 03:01:41;;;;;;;5.40;1.00;;;8.40;85.50;;;;;;5059241;28;20051;-74
2020/12/14 03:04:06;;;;;;;3.20;1.30;;;8.50;85.60;;;;;;5076363;28;20036;-74
2020/12/14 03:06:33;;;;;;;5.32;2.03;;;8.50;85.80;;;;;;5076263;28;20036;-73
2020/12/14 03:08:58;;;;;;;2.55;1.00;;;8.50;85.80;;;;;;5076634;28;20031;-74
2020/12/14 03:11:25;;;;;;;2.00;1.00;;;8.40;85.90;;;;;;5094498;28;20028;-74
2020/12/14 03:13:50;;;;;;;3.88;1.02;;;8.50;85.90;;;;;;5076651;28;20021;-74
2020/12/14 03:16:17;;;;;;;3.03;1.10;;;8.50;85.90;;;;;;5059575;28;20054;-74
2020/12/14 03:18:43;;;;;;;3.33;0.88;;;8.50;86.00;;;;;;5076142;28;20492;-74
2020/12/14 03:21:09;;;;;;;3.38;1.10;;;8.50;86.00;;;;;;5075710;28;20528;-75
2020/12/14 03:23:35;;;;;;;3.40;1.00;;;8.50;86.10;;;;;;5094581;28;20032;-75
2020/12/14 03:26:01;;;;;;;3.63;1.08;;;8.50;86.10;;;;;;5076262;28;20024;-75
2020/12/14 03:28:27;;;;;;;3.17;1.27;;;8.50;86.10;;;;;;5094256;28;20052;-75
2020/12/14 03:30:53;;;;;;;3.30;0.88;;;8.60;86.20;;;;;;5075874;28;20063;-75
2020/12/14 03:33:19;;;;;;;2.22;0.88;;;8.50;86.20;;;;;;5094468;28;20479;-75
2020/12/14 03:35:47;;;;;;;2.63;1.00;;;8.60;86.20;;;;;;5093712;28;20488;-75
2020/12/14 03:38:13;;;;;;;3.08;1.00;;;8.50;86.20;;;;;;5079277;28;20016;-75
2020/12/14 03:40:39;;;;;;;2.53;0.80;;;8.60;86.40;;;;;;5093836;28;20443;-75
2020/12/14 03:43:04;;;;;;;2.35;0.90;;;8.60;86.40;;;;;;5075933;28;20055;-75
2020/12/14 03:45:30;;;;;;;3.85;1.05;;;8.60;86.40;;;;;;5076272;28;20028;-74
2020/12/14 03:47:56;;;;;;;1.20;0.80;;;8.60;86.50;;;;;;5079602;28;20114;-74
2020/12/14 03:50:21;;;;;;;3.20;1.20;;;8.60;86.40;;;;;;5064878;28;20423;-74
2020/12/14 03:52:47;;;;;;;1.75;0.90;;;8.60;86.40;;;;;;5065905;28;20033;-74
2020/12/14 03:55:13;;;;;;;3.67;1.50;;;8.60;86.50;;;;;;5053330;28;20475;-74
2020/12/14 03:57:38;;;;;;;2.33;1.00;;;8.60;86.60;;;;;;5059400;28;20114;-74
2020/12/14 04:00:05;;;;;;;3.00;1.00;;;8.60;86.70;;;;;;5058957;28;20476;-74
2020/12/14 04:02:30;;;;;;;4.70;1.13;;;8.70;86.90;;;;;;5075773;28;20103;-74
2020/12/14 04:04:56;;;;;;;3.08;1.05;;;8.60;86.90;;;;;;5055498;28;20124;-74
2020/12/14 04:07:22;;;;;;;5.28;1.13;;;8.60;87.10;;;;;;5092922;28;20101;-74
2020/12/14 04:09:47;;;;;;;3.90;1.38;;;8.60;87.20;;;;;;5056081;28;20147;-74
2020/12/14 04:12:13;;;;;;;4.20;1.25;;;8.60;87.30;;;;;;5057029;28;20119;-74
2020/12/14 04:14:39;;;;;;;4.57;1.40;;;8.60;87.30;;;;;;5058539;28;20035;-74
2020/12/14 04:17:05;;;;;;;4.60;1.30;;;8.60;87.40;;;;;;5075137;28;20028;-74
2020/12/14 04:19:31;;;;;;;4.35;1.50;;;8.60;87.50;;;;;;5058643;28;20038;-74
2020/12/14 04:21:59;;;;;;;3.42;1.38;;;8.60;87.60;;;;;;5093452;28;20078;-74
2020/12/14 04:24:25;;;;;;;4.63;1.27;;;8.60;87.70;;;;;;5058609;28;20032;-74
2020/12/14 04:26:53;;;;;;;4.85;1.48;;;8.60;87.70;;;;;;5059378;28;20611;-74
2020/12/14 04:29:20;;;;;;;2.05;1.30;;;8.60;87.90;;;;;;5093056;28;20473;-74
2020/12/14 04:31:46;;;;;;;3.95;1.05;;;8.60;88.00;;;;;;5092888;28;20031;-74
2020/12/14 04:34:11;;;;;;;1.60;1.13;;;8.50;88.00;;;;;;5092273;28;20028;-74
2020/12/14 04:36:37;;;;;;;2.97;1.75;;;8.50;88.10;;;;;;5054844;28;20107;-74
2020/12/14 04:39:03;;;;;;;3.10;1.20;;;8.50;88.40;;;;;;5088811;28;20111;-74
2020/12/14 04:41:29;;;;;;;3.90;1.42;;;8.50;88.40;;;;;;5074163;28;20032;-74
2020/12/14 04:43:58;;;;;;;3.38;1.13;;;8.50;88.50;;;;;;5062789;28;20493;-74
2020/12/14 04:46:27;;;;;;;4.05;1.65;;;8.50;88.60;;;;;;5060099;28;20472;-74
2020/12/14 04:48:53;;;;;;;2.00;1.30;;;8.40;88.70;;;;;;5074365;28;20162;-74
2020/12/14 04:51:18;;;;;;;2.88;1.38;;;8.40;88.80;;;;;;5093096;28;20048;-74
2020/12/14 04:53:46;;;;;;;3.20;1.60;;;8.40;89.10;;;;;;5074821;28;20028;-74
2020/12/14 04:56:17;;;;;;;4.85;1.70;;;8.40;89.10;;;;;;5074624;28;20020;-74
2020/12/14 04:58:43;;;;;;;4.60;1.70;;;8.40;90.00;;;;;;5063529;28;20032;-74
2020/12/14 05:01:09;;;;;;;4.97;1.40;;;8.40;89.50;;;;;;5059521;28;20111;-74
2020/12/14 05:03:35;;;;;;;4.60;1.75;;;8.40;89.70;;;;;;5054974;28;20119;-75
2020/12/14 05:06:00;;;;;;;2.83;1.60;;;8.30;89.80;;;;;;5082706;28;20035;-75
2020/12/14 05:08:29;;;;;;;2.47;1.52;;;8.30;89.80;;;;;;5074701;28;20024;-75
2020/12/14 05:10:56;;;;;;;3.72;1.55;;;8.30;90.00;;;;;;5082765;28;20059;-75
2020/12/14 05:13:26;;;;;;;2.47;1.33;;;8.40;90.00;;;;;;5054578;28;20036;-74
2020/12/14 05:15:53;;;;;;;3.92;1.55;;;8.40;90.00;;;;;;5079295;28;20016;-74
2020/12/14 05:18:22;;;;;;;3.05;1.30;;;8.30;90.00;;;;;;5074681;28;20028;-74
2020/12/14 05:21:02;;;;;;;3.28;1.50;;;8.40;90.00;;;;;;5074854;28;20058;-74
2020/12/14 05:23:28;;;;;;;;;;;8.40;90.00;;;;;;5074000;28;20028;-74
2020/12/14 05:26:12;;;;;;;2.65;1.70;;;8.30;89.90;;;;;;5106758;28;19930;-74
2020/12/14 05:28:38;;;;;;;5.85;1.65;;;8.40;90.10;;;;;;5043668;28;20040;-74
2020/12/14 05:31:04;;;;;;;2.92;1.88;;;8.30;90.00;;;;;;5073826;28;20020;-73
2020/12/14 05:33:31;;;;;;;4.18;1.67;;;8.40;90.00;;;;;;5074351;28;20388;-74
2020/12/14 05:35:57;;;;;;;3.95;1.77;;;8.40;90.10;;;;;;5074044;28;20381;-74
2020/12/14 05:38:28;;;;;;;6.03;1.98;;;8.40;90.00;;;;;;5058888;28;20029;-74
2020/12/14 05:41:05;;;;;;;3.25;1.58;;;8.40;90.10;;;;;;5066056;28;20024;-74
2020/12/14 05:43:34;;;;;;;2.47;1.30;;;8.40;90.10;;;;;;5092186;28;20028;-74
2020/12/14 05:46:15;;;;;;;1.40;1.20;;;8.40;90.10;;;;;;5077045;28;20024;-74
2020/12/14 05:48:41;;;;;;;1.98;1.30;;;8.40;90.10;;;;;;5096328;28;20074;-78
2020/12/14 05:51:09;;;;;;;2.42;1.50;;;8.40;90.00;;;;;;5060884;28;20028;-78
2020/12/14 05:53:40;;;;;;;3.35;1.60;;;8.50;90.10;;;;;;5096476;28;20107;-78
2020/12/14 05:56:09;;;;;;;3.25;1.50;;;8.50;90.10;;;;;;5096098;28;20046;-78
2020/12/14 05:58:37;;;;;;;2.42;1.38;;;8.50;90.10;;;;;;5077816;28;20024;-78
2020/12/14 06:01:05;;;;;;;2.47;1.70;;;8.50;90.20;;;;;;5085583;28;20032;-78
2020/12/14 06:03:31;;;;;;;2.10;1.40;;;8.50;90.50;;;;;;5096202;28;20048;-77
2020/12/14 06:06:13;;;;;;;3.55;1.40;;;8.50;90.20;;;;;;5096430;28;20098;-78
2020/12/14 06:08:45;;;;;;;3.50;1.67;;;8.50;90.20;;;;;;5074712;28;20031;-78
2020/12/14 06:11:20;;;;;;;3.08;1.40;;;8.50;90.30;;;;;;5093765;28;20404;-77
2020/12/14 06:13:51;;;;;;;2.63;1.50;;;8.60;90.30;;;;;;5077767;28;20545;-77
2020/12/14 06:16:24;;;;;;;2.50;1.50;;;8.50;90.30;;;;;;5077976;28;20035;-77
2020/12/14 06:18:50;;;;;;;1.70;1.50;;;8.50;90.40;;;;;;5077976;28;20020;-77
2020/12/14 06:21:29;;;;;;;2.53;1.40;;;8.50;90.40;;;;;;5077853;28;20477;-77
2020/12/14 06:23:57;;;;;;;;;;;8.60;90.50;;;;;;5093705;28;20069;-77
2020/12/14 06:26:23;;;;;;;2.83;1.85;;;8.50;90.50;;;;;;5090667;28;20420;-77
2020/12/14 06:28:53;;;;;;;2.40;1.90;;;8.50;90.60;;;;;;5095865;28;20030;-78
2020/12/14 06:31:35;;;;;;;5.03;2.10;;;8.50;90.80;;;;;;5077578;28;20073;-78
2020/12/14 06:34:02;;;;;;;3.33;1.55;;;8.50;91.00;;;;;;5080508;28;20415;-77
2020/12/14 06:36:37;;;;;;;3.58;2.05;;;8.50;91.00;;;;;;5095587;28;20086;-78
2020/12/14 06:39:03;;;;;;;3.50;2.10;;;8.50;91.10;;;;;;5093156;28;20034;-78
2020/12/14 06:41:30;;;;;;;2.88;1.88;;;8.50;91.20;;;;;;5092079;28;20085;-78
2020/12/14 06:44:05;;;;;;;4.47;2.10;;;8.40;91.30;;;;;;5077378;28;20035;-79
2020/12/14 06:46:32;;;;;;;3.22;2.25;;;8.50;91.60;;;;;;5095547;28;20035;-78
2020/12/14 06:48:59;;;;;;;3.08;2.35;;;8.50;91.50;;;;;;5095054;28;20431;-77
2020/12/14 06:51:26;;;;;;;3.95;2.22;;;8.50;91.60;;;;;;5095365;28;20379;-78
2020/12/14 06:53:54;;;;;;;3.17;1.98;;;8.40;91.70;;;;;;5077786;28;20361;-77
2020/12/14 06:56:28;;;;;;;4.22;2.40;;;8.50;91.70;;;;;;5059739;28;20031;-78
2020/12/14 06:58:55;;;;;;;4.70;3.13;;;8.50;91.80;;;;;;5077241;28;20024;-78
2020/12/14 07:01:34;;;;;;;3.90;2.20;;;8.50;91.80;;;;;;5078644;28;20035;-78
2020/12/14 07:04:02;;;;;;;6.10;2.30;;;8.50;92.20;;;;;;5075161;28;20028;-78
2020/12/14 07:06:28;;;;;;;3.03;2.22;;;8.50;91.90;;;;;;5057071;28;20397;-78
2020/12/14 07:08:54;;;;;;;6.93;2.95;;;8.50;91.90;;;;;;5057081;28;20021;-78
2020/12/14 07:11:23;;;;;;;2.53;2.03;;;8.50;92.00;;;;;;5074865;28;20024;-78
2020/12/14 07:13:49;;;;;;;3.83;2.30;;;8.50;92.00;;;;;;5056915;28;20701;-78
2020/12/14 07:16:16;;;;;;;3.25;2.83;;;8.50;92.10;;;;;;5074802;28;20024;-78
2020/12/14 07:18:44;;;;;;;6.32;2.63;;;8.50;92.10;;;;;;5052658;28;20033;-78
2020/12/14 07:21:16;;;;;;;3.67;2.65;;;8.50;92.20;;;;;;5052931;28;20134;-78
2020/12/14 07:23:46;;;;;;;3.75;2.03;;;8.50;92.20;;;;;;5052552;28;20044;-78
2020/12/14 07:26:16;;;;;;;2.92;2.30;;;8.50;92.20;;;;;;5052565;28;20517;-78
2020/12/14 07:28:53;;;;;;;3.08;2.22;;;8.60;92.30;;;;;;5052482;28;20065;-78
2020/12/14 07:31:21;;;;;;;3.67;2.30;;;8.60;92.30;;;;;;5052273;28;20472;-78
2020/12/14 07:33:54;;;;;;;3.00;2.40;;;8.60;92.40;;;;;;5052415;28;20071;-78
2020/12/14 07:36:20;;;;;;;2.47;2.05;;;8.60;92.50;;;;;;5052446;28;20083;-78
2020/12/14 07:38:48;;;;;;;2.97;2.38;;;8.60;92.40;;;;;;5052480;28;20114;-78
2020/12/14 07:41:14;;;;;;;2.90;2.15;;;8.60;92.40;;;;;;5048314;28;20060;-78
2020/12/14 07:44:00;;;;;;;3.60;2.67;;;8.70;92.50;;;;;;5072178;28;20078;-78
2020/12/14 07:46:33;;;;;;;4.90;2.67;;;8.70;92.50;;;;;;5055799;28;20029;-78
2020/12/14 07:49:05;;;;;;;3.88;2.65;;;8.70;92.50;;;;;;5056768;28;20041;-79
2020/12/14 07:51:32;;;;;;;5.65;2.85;;;8.70;92.50;;;;;;5089768;28;20017;-78
2020/12/14 07:54:19;;;;;;;4.65;3.28;;;8.70;92.50;;;;;;5072827;28;20055;-79
2020/12/14 07:56:59;;;;;;;3.70;2.70;;;8.80;92.60;;;;;;5055957;28;20020;-79
2020/12/14 07:59:26;;;;;;;6.63;3.33;;;8.70;92.50;;;;;;5077108;28;20024;-75
2020/12/14 08:01:53;;;;;;;5.22;3.40;;;8.80;92.70;;;;;;5094083;28;20034;-75
2020/12/14 08:04:29;;;;;;;3.10;2.80;;;8.80;92.70;;;;;;5093955;28;20527;-75
2020/12/14 08:06:57;;;;;;;3.03;2.42;;;8.80;92.70;;;;;;5094097;28;20034;-79
2020/12/14 08:09:30;;;;;;;3.55;2.72;;;8.80;92.70;;;;;;5075747;28;20027;-78
2020/12/14 08:11:56;;;;;;;5.03;2.83;;;8.80;92.70;;;;;;5075750;28;20024;-79
2020/12/14 08:14:23;;;;;;;3.75;2.95;;;8.90;92.70;;;;;;5092731;28;20111;-79
2020/12/14 08:16:49;;;;;;;4.38;2.67;;;8.90;92.70;;;;;;5075960;28;20375;-78
2020/12/14 08:19:20;;;;;;;3.15;2.70;;;8.90;92.70;;;;;;5094150;28;20427;-79
2020/12/14 08:22:30;;;;;;;4.05;2.75;;;8.90;92.80;;;;;;5093914;28;20028;-79
2020/12/14 08:24:56;;;;;;;3.33;2.58;;;9.00;92.80;;;;;;5034559;28;20052;-75
2020/12/14 08:27:49;;;;;;;4.50;2.92;;;9.00;92.80;;;;;;5086776;28;20043;-75
2020/12/14 08:30:18;;;;;;;3.75;2.72;;;9.00;92.90;;;;;;5072539;28;20033;-75
2020/12/14 08:32:43;;;;;;;3.97;3.55;;;9.00;92.90;;;;;;5073187;28;20461;-75
2020/12/14 08:35:25;;;;;;;3.60;2.70;;;9.10;92.90;;;;;;5055166;28;20024;-75
2020/12/14 08:37:59;;;;;;;5.82;3.22;;;9.10;93.00;;;;;;5088825;28;20023;-75
2020/12/14 08:40:25;;;;;;;7.00;3.65;;;9.10;92.90;;;;;;5088771;28;20036;-75
2020/12/14 08:42:51;;;;;;;5.07;3.10;;;9.20;93.00;;;;;;5092681;28;20035;-75
2020/12/14 08:45:17;;;;;;;6.00;3.25;;;9.20;93.00;;;;;;5074893;28;20112;-75
2020/12/14 08:47:43;;;;;;;4.18;3.10;;;9.20;93.00;;;;;;5093295;28;20511;-75
2020/12/14 08:50:11;;;;;;;3.92;3.13;;;9.20;93.00;;;;;;5092956;28;20048;-75
2020/12/14 08:52:38;;;;;;;5.53;3.60;;;9.20;93.10;;;;;;5075247;28;20023;-79
2020/12/14 08:55:04;;;;;;;7.13;4.43;;;9.20;93.10;;;;;;5109325;28;20043;-79
2020/12/14 08:57:31;;;;;;;4.32;2.85;;;9.30;93.10;;;;;;5109282;28;20426;-79
2020/12/14 09:00:09;;;;;;;4.20;2.75;;;9.30;93.20;;;;;;5093321;28;20031;-79
2020/12/14 09:02:36;;;;;;;6.10;2.55;;;9.30;93.20;;;;;;5075228;28;20032;-79
2020/12/14 09:05:23;;;;;;;4.95;2.70;;;9.30;93.30;;;;;;5075257;28;20028;-79
2020/12/14 09:07:49;;;;;;;4.55;2.58;;;9.30;93.40;;;;;;5076125;28;20032;-79
2020/12/14 09:10:20;;;;;;;3.22;2.17;;;9.40;93.30;;;;;;5095243;28;20479;-78
2020/12/14 09:12:46;;;;;;;4.03;2.05;;;9.40;93.40;;;;;;5087449;28;20106;-78
2020/12/14 09:15:12;;;;;;;1.77;1.50;;;9.40;93.40;;;;;;5084956;28;20489;-78
2020/12/14 09:17:38;;;;;;;2.28;1.48;;;9.40;93.40;;;;;;5075031;28;20055;-78
2020/12/14 09:20:07;;;;;;;1.15;1.02;;;9.40;93.40;;;;;;5061164;28;20038;-79
2020/12/14 09:22:33;;;;;;;1.52;1.13;;;9.40;93.40;;;;;;5077024;28;20031;-79
2020/12/14 09:24:58;;;;;;;2.25;1.10;;;9.50;93.40;;;;;;5076948;28;20425;-79
2020/12/14 09:27:24;;;;;;;1.95;1.30;;;9.60;93.40;;;;;;5076992;28;20032;-79
2020/12/14 09:29:50;;;;;;;1.15;1.00;;;9.60;93.40;;;;;;5058952;28;20468;-79
2020/12/14 09:32:17;;;;;;;1.27;1.10;;;9.60;93.40;;;;;;5042530;28;20029;-79
2020/12/14 09:34:42;;;;;;;3.08;1.75;;;9.60;93.40;;;;;;5042214;28;20020;-79
2020/12/14 09:37:09;;;;;;;1.27;1.08;;;9.60;93.40;;;;;;5077809;28;20027;-79
2020/12/14 09:39:35;;;;;;;1.35;1.00;;;9.70;93.50;;;;;;5097152;28;20464;-79
2020/12/14 09:42:03;;;;;;;1.30;1.20;;;9.70;93.50;;;;;;5095565;28;20040;-79
2020/12/14 09:44:30;;;;;;;1.88;1.20;;;9.70;93.60;;;;;;5097113;28;20035;-79
2020/12/14 09:46:58;;;;;;;2.70;1.23;;;9.70;93.60;;;;;;5072435;28;20062;-79
2020/12/14 09:49:24;;;;;;;3.30;1.50;;;9.80;93.70;;;;;;5078672;28;20518;-79
2020/12/14 09:51:50;;;;;;;4.55;2.03;;;9.80;93.70;;;;;;5096778;28;20020;-79
2020/12/14 09:54:17;;;;;;;2.10;1.73;;;9.80;93.70;;;;;;5078544;28;20185;-79
2020/12/14 09:56:42;;;;;;;2.35;1.70;;;9.90;93.70;;;;;;5078536;28;20030;-79
2020/12/14 09:59:08;;;;;;;2.70;2.05;;;9.90;93.70;;;;;;5078535;28;20048;-79
2020/12/14 10:01:35;;;;;;;3.90;2.75;;;9.90;93.70;;;;;;5078433;28;20117;-79
2020/12/14 10:04:00;;;;;;;2.10;1.90;;;10.00;93.70;;;;;;5078511;28;20030;-79
2020/12/14 10:06:29;;;;;;;3.28;2.10;;;10.00;93.70;;;;;;5096520;28;20024;-80
2020/12/14 10:08:55;;;;;;;1.92;1.77;;;10.00;93.60;;;;;;5078339;28;20032;-79
2020/12/14 10:11:25;;;;;;;3.15;2.08;;;10.10;93.70;;;;;;5078192;28;20044;-79
2020/12/14 10:13:51;;;;;;;2.35;2.15;;;10.10;93.70;;;;;;5061712;28;20020;-80
2020/12/14 10:16:17;;;;;;;3.55;2.25;;;10.10;93.70;;;;;;5096340;28;20024;-79
2020/12/14 10:18:43;;;;;;;2.53;2.30;;;10.10;93.70;;;;;;5078140;28;20107;-79
2020/12/14 10:21:09;;;;;;;2.85;2.13;;;10.20;93.80;;;;;;5096141;28;20063;-79
2020/12/14 10:23:35;;;;;;;3.65;2.05;;;10.20;93.80;;;;;;5096066;28;20028;-79
2020/12/14 10:26:00;;;;;;;3.80;2.22;;;10.30;93.80;;;;;;5061309;28;20028;-79
2020/12/14 10:28:26;;;;;;;2.47;1.98;;;10.30;93.80;;;;;;5096062;28;20425;-79
2020/12/14 10:30:52;;;;;;;2.50;1.90;;;10.30;93.80;;;;;;5076723;28;20425;-79
2020/12/14 10:33:18;;;;;;;2.38;1.92;;;10.30;93.80;;;;;;5077695;28;20376;-79
2020/12/14 10:35:45;;;;;;;4.82;2.15;;;10.40;93.80;;;;;;5077772;28;20067;-79
2020/12/14 10:38:11;;;;;;;2.40;1.90;;;10.40;93.80;;;;;;5075671;28;20020;-79
2020/12/14 10:40:37;;;;;;;1.77;1.60;;;10.40;93.70;;;;;;5057577;28;20115;-79
2020/12/14 10:43:03;;;;;;;2.40;1.85;;;10.50;93.80;;;;;;5041294;28;20032;-79
2020/12/14 10:45:28;;;;;;;3.58;1.70;;;10.50;93.80;;;;;;5075537;28;20089;-79
2020/12/14 10:47:54;;;;;;;2.63;1.65;;;10.50;93.80;;;;;;5058811;28;20029;-79
2020/12/14 10:50:20;;;;;;;1.88;1.50;;;10.50;93.70;;;;;;5077678;28;20059;-79
2020/12/14 10:52:45;;;;;;;2.75;1.63;;;10.60;93.70;;;;;;5060687;28;20537;-79
2020/12/14 10:55:11;;;;;;;2.58;1.90;;;10.60;93.70;;;;;;5077439;28;20050;-80
2020/12/14 10:57:37;;;;;;;4.68;2.92;;;10.60;93.70;;;;;;5095553;28;20016;-79
2020/12/14 11:00:07;;;;;;;3.88;2.55;;;10.60;93.70;;;;;;5095388;28;20063;-79
2020/12/14 11:02:38;;;;;;;3.42;3.13;;;10.60;93.60;;;;;;5068715;28;20048;-79
2020/12/14 11:05:04;;;;;;;4.20;3.80;;;10.60;93.60;;;;;;5040679;28;20028;-75
2020/12/14 11:07:32;;;;;;;4.43;3.83;;;10.60;93.60;;;;;;5042635;28;20039;-75
2020/12/14 11:09:58;;;;;;;6.35;3.20;;;10.60;93.60;;;;;;5074502;28;20034;-75
2020/12/14 11:12:24;;;;;;;3.88;2.92;;;10.60;93.60;;;;;;5074532;28;20028;-75
2020/12/14 11:14:49;;;;;;;4.63;3.38;;;10.70;93.60;;;;;;5076711;28;20027;-75
2020/12/14 11:17:15;;;;;;;3.75;3.30;;;10.60;93.50;;;;;;5096387;28;20031;-75
2020/12/14 11:19:41;;;;;;;6.22;4.28;;;10.60;93.60;;;;;;5076286;28;20110;-75
2020/12/14 11:22:07;;;;;;;4.93;4.28;;;10.70;93.60;;;;;;5083475;28;20102;-75
2020/12/14 11:24:32;;;;;;;5.93;4.90;;;10.70;93.60;;;;;;5096241;28;20074;-75
2020/12/14 11:26:58;;;;;;;4.32;3.92;;;10.80;93.60;;;;;;5076362;28;20080;-76
2020/12/14 11:29:25;;;;;;;8.43;4.60;;;10.80;93.50;;;;;;5094711;28;20126;-76
2020/12/14 11:31:51;;;;;;;6.63;4.80;;;10.90;93.80;;;;;;5105227;28;20042;-76
2020/12/14 11:34:17;;;;;;;7.05;6.00;;;11.00;93.50;;;;;;5095669;28;20024;-75
2020/12/14 11:36:43;;;;;;;11.18;7.10;;;11.00;93.40;;;;;;5115083;28;20077;-75
2020/12/14 11:39:09;;;;;;;15.32;8.55;;;11.10;93.40;;;;;;5114836;28;20032;-75
2020/12/14 11:41:34;;;;;;;18.02;10.82;;;11.20;93.30;;;;;;5090668;28;20036;-76
2020/12/14 11:44:00;;;;;;;20.70;11.95;;;11.70;92.20;;;;;;5110793;28;20030;-76
2020/12/14 11:46:26;;;;;;;23.88;13.80;;;12.50;90.30;;;;;;5096582;28;20059;-75
2020/12/14 11:48:52;;;;;;;17.15;10.15;;;12.80;89.20;;;;;;5100282;28;20044;-75
2020/12/14 11:51:18;;;;;;;13.68;7.75;;;12.80;88.80;;;;;;5076420;28;20373;-76
2020/12/14 11:53:43;;;;;;;6.78;4.53;;;12.70;89.20;;;;;;5092966;28;20085;-79
2020/12/14 11:56:09;;;;;;;6.18;3.40;;;12.70;89.50;;;;;;5093148;28;20074;-80
2020/12/14 11:58:34;;;;;;;6.07;2.35;;;12.60;89.90;;;;;;5093034;28;20020;-76
2020/12/14 12:01:00;;;;;;;4.80;2.58;;;12.80;89.20;;;;;;5088361;28;20103;-76
2020/12/14 12:03:26;;;;;;;4.95;2.78;;;13.20;87.50;;;;;;5035869;28;20037;-76
2020/12/14 12:05:51;;;;;;;6.28;2.55;;;13.50;86.10;;;;;;5052506;28;20040;-75
2020/12/14 12:08:17;;;;;;;5.53;2.67;;;13.40;86.20;;;;;;5071442;28;20544;-75
2020/12/14 12:10:43;;;;;;;3.08;2.00;;;13.00;88.30;;;;;;5073699;28;20058;-75
2020/12/14 12:13:08;;;;;;;3.38;1.70;;;12.80;89.30;;;;;;5055589;28;20389;-76
2020/12/14 12:15:35;;;;;;;4.00;2.58;;;13.10;88.00;;;;;;5060947;28;20048;-76
2020/12/14 12:18:00;;;;;;;3.55;2.17;;;13.70;85.20;;;;;;5058967;28;20426;-76
2020/12/14 12:20:26;;;;;;;3.67;1.27;;;14.20;82.80;;;;;;5059094;28;20028;-76
2020/12/14 12:22:57;;;;;;;2.90;1.80;;;14.50;81.30;;;;;;5075832;28;20052;-76
2020/12/14 12:25:24;;;;;;;2.63;1.67;;;14.70;80.80;;;;;;5059545;28;20062;-75
2020/12/14 12:27:50;;;;;;;3.80;1.58;;;14.50;81.90;;;;;;5075692;28;20059;-80
2020/12/14 12:30:15;;;;;;;2.50;1.40;;;14.20;83.40;;;;;;5065005;28;20060;-80
2020/12/14 12:32:41;;;;;;;11.55;1.50;;;13.90;84.10;;;;;;5073503;28;20107;-79
2020/12/14 12:35:06;;;;;;;3.15;1.70;;;13.60;85.70;;;;;;5055925;28;20034;-79
2020/12/14 12:37:32;;;;;;;2.22;1.80;;;13.20;87.20;;;;;;5038962;28;20366;-79
2020/12/14 12:39:59;;;;;;;3.90;1.90;;;12.90;88.50;;;;;;5055524;28;20028;-79
2020/12/14 12:42:25;;;;;;;3.03;1.80;;;12.60;89.50;;;;;;5073583;28;20141;-80
2020/12/14 12:44:50;;;;;;;4.65;2.30;;;12.50;90.10;;;;;;5055456;28;20028;-79
2020/12/14 12:47:16;;;;;;;2.10;1.63;;;12.30;90.30;;;;;;5068400;28;20017;-76
2020/12/14 12:49:42;;;;;;;4.20;1.50;;;12.20;90.60;;;;;;5074452;28;20076;-76
2020/12/14 12:52:07;;;;;;;3.88;1.80;;;12.30;90.60;;;;;;5093385;28;20066;-81
2020/12/14 12:54:33;;;;;;;2.28;1.40;;;12.30;90.60;;;;;;5063318;28;20020;-81
2020/12/14 12:57:04;;;;;;;3.30;1.50;;;12.30;90.50;;;;;;5061381;28;20452;-81